sensor_id;sensor_type;location;lat;lon;timestamp;P1;durP1;ratioP1;P2;durP2;ratioP2
79243;SDS011;68672;42.676;23.356;2023-03-26T00:01:02;1.80;;;1.30;;
79243;SDS011;68672;42.676;23.356;2023-03-26T00:03:29;2.78;;;1.85;;
79243;SDS011;68672;42.676;23.356;2023-03-26T00:06:09;2.17;;;1.55;;
79243;SDS011;68672;42.676;23.356;2023-03-26T00:08:45;1.58;;;1.20;;
79243;SDS011;68672;42.676;23.356;2023-03-26T00:11:13;1.58;;;1.00;;
79243;SDS011;68672;42.676;23.356;2023-03-26T00:13:40;1.65;;;1.10;;
79243;SDS011;68672;42.676;23.356;2023-03-26T00:16:08;2.75;;;1.30;;
79243;SDS011;68672;42.676;23.356;2023-03-26T00:18:34;1.85;;;1.25;;
79243;SDS011;68672;42.676;23.356;2023-03-26T00:21:02;1.45;;;1.15;;
79243;SDS011;68672;42.676;23.356;2023-03-26T00:23:29;2.50;;;1.17;;
79243;SDS011;68672;42.676;23.356;2023-03-26T00:25:57;1.70;;;1.10;;
79243;SDS011;68672;42.676;23.356;2023-03-26T00:28:27;1.20;;;0.90;;
79243;SDS011;68672;42.676;23.356;2023-03-26T00:31:01;1.02;;;0.93;;
79243;SDS011;68672;42.676;23.356;2023-03-26T00:33:28;1.20;;;0.90;;
79243;SDS011;68672;42.676;23.356;2023-03-26T00:35:59;1.65;;;0.95;;
79243;SDS011;68672;42.676;23.356;2023-03-26T00:38:28;1.65;;;1.08;;
79243;SDS011;68672;42.676;23.356;2023-03-26T00:40:58;1.42;;;1.13;;
79243;SDS011;68672;42.676;23.356;2023-03-26T00:43:30;1.42;;;1.10;;
79243;SDS011;68672;42.676;23.356;2023-03-26T00:45:59;1.15;;;0.93;;
79243;SDS011;68672;42.676;23.356;2023-03-26T00:48:26;1.73;;;1.00;;
79243;SDS011;68672;42.676;23.356;2023-03-26T00:50:54;1.30;;;1.10;;
79243;SDS011;68672;42.676;23.356;2023-03-26T00:53:20;1.63;;;1.10;;
79243;SDS011;68672;42.676;23.356;2023-03-26T00:55:46;1.58;;;1.15;;
79243;SDS011;68672;42.676;23.356;2023-03-26T00:58:12;1.70;;;1.10;;
79243;SDS011;68672;42.676;23.356;2023-03-26T01:00:43;1.33;;;1.13;;
79243;SDS011;68672;42.676;23.356;2023-03-26T01:03:13;1.63;;;1.10;;
79243;SDS011;68672;42.676;23.356;2023-03-26T01:05:41;1.40;;;1.10;;
79243;SDS011;68672;42.676;23.356;2023-03-26T01:10:54;1.30;;;1.08;;
79243;SDS011;68672;42.676;23.356;2023-03-26T01:13:27;1.80;;;1.20;;
79243;SDS011;68672;42.676;23.356;2023-03-26T01:15:54;1.73;;;1.20;;
79243;SDS011;68672;42.676;23.356;2023-03-26T01:18:22;1.40;;;1.08;;
79243;SDS011;68672;42.676;23.356;2023-03-26T01:20:52;1.45;;;1.17;;
79243;SDS011;68672;42.676;23.356;2023-03-26T01:23:23;1.70;;;1.60;;
79243;SDS011;68672;42.676;23.356;2023-03-26T01:26:04;4.03;;;0.93;;
79243;SDS011;68672;42.676;23.356;2023-03-26T01:28:54;1.27;;;1.05;;
79243;SDS011;68672;42.676;23.356;2023-03-26T01:31:32;2.40;;;0.98;;
79243;SDS011;68672;42.676;23.356;2023-03-26T01:34:32;1.90;;;1.20;;
79243;SDS011;68672;42.676;23.356;2023-03-26T01:39:55;1.77;;;1.40;;
79243;SDS011;68672;42.676;23.356;2023-03-26T01:45:53;2.70;;;1.50;;
79243;SDS011;68672;42.676;23.356;2023-03-26T01:48:20;1.73;;;1.23;;
79243;SDS011;68672;42.676;23.356;2023-03-26T01:50:52;1.77;;;1.23;;
79243;SDS011;68672;42.676;23.356;2023-03-26T01:53:20;1.80;;;1.38;;
79243;SDS011;68672;42.676;23.356;2023-03-26T01:56:00;2.58;;;1.50;;
79243;SDS011;68672;42.676;23.356;2023-03-26T02:04:51;1.48;;;1.13;;
79243;SDS011;68672;42.676;23.356;2023-03-26T02:09:59;1.98;;;1.48;;
79243;SDS011;68672;42.676;23.356;2023-03-26T02:12:30;2.22;;;1.30;;
79243;SDS011;68672;42.676;23.356;2023-03-26T02:14:59;1.60;;;1.35;;
79243;SDS011;68672;42.676;23.356;2023-03-26T02:17:25;2.10;;;1.52;;
79243;SDS011;68672;42.676;23.356;2023-03-26T02:19:54;2.20;;;1.52;;
79243;SDS011;68672;42.676;23.356;2023-03-26T02:22:20;1.90;;;1.40;;
79243;SDS011;68672;42.676;23.356;2023-03-26T02:24:46;2.47;;;1.70;;
79243;SDS011;68672;42.676;23.356;2023-03-26T02:27:12;2.13;;;1.70;;
79243;SDS011;68672;42.676;23.356;2023-03-26T02:29:38;2.40;;;1.52;;
79243;SDS011;68672;42.676;23.356;2023-03-26T02:32:05;2.80;;;1.90;;
79243;SDS011;68672;42.676;23.356;2023-03-26T02:34:31;2.38;;;1.70;;
79243;SDS011;68672;42.676;23.356;2023-03-26T02:36:57;2.33;;;1.80;;
79243;SDS011;68672;42.676;23.356;2023-03-26T02:39:23;3.05;;;2.00;;
79243;SDS011;68672;42.676;23.356;2023-03-26T02:41:49;2.85;;;1.90;;
79243;SDS011;68672;42.676;23.356;2023-03-26T02:44:14;2.03;;;1.60;;
79243;SDS011;68672;42.676;23.356;2023-03-26T02:46:40;2.58;;;1.90;;
79243;SDS011;68672;42.676;23.356;2023-03-26T02:49:05;2.22;;;1.98;;
79243;SDS011;68672;42.676;23.356;2023-03-26T02:51:31;2.40;;;1.80;;
79243;SDS011;68672;42.676;23.356;2023-03-26T02:53:59;2.63;;;2.15;;
79243;SDS011;68672;42.676;23.356;2023-03-26T02:56:28;2.10;;;1.70;;
79243;SDS011;68672;42.676;23.356;2023-03-26T02:58:53;2.50;;;1.98;;
79243;SDS011;68672;42.676;23.356;2023-03-26T03:01:21;2.15;;;1.83;;
79243;SDS011;68672;42.676;23.356;2023-03-26T03:03:50;2.00;;;1.60;;
79243;SDS011;68672;42.676;23.356;2023-03-26T03:06:15;2.92;;;2.20;;
79243;SDS011;68672;42.676;23.356;2023-03-26T03:08:43;2.47;;;1.70;;
79243;SDS011;68672;42.676;23.356;2023-03-26T03:11:16;2.45;;;1.83;;
79243;SDS011;68672;42.676;23.356;2023-03-26T03:13:45;2.95;;;1.70;;
79243;SDS011;68672;42.676;23.356;2023-03-26T03:16:14;2.40;;;1.80;;
79243;SDS011;68672;42.676;23.356;2023-03-26T03:18:46;2.30;;;1.80;;
79243;SDS011;68672;42.676;23.356;2023-03-26T03:21:18;2.33;;;1.75;;
79243;SDS011;68672;42.676;23.356;2023-03-26T03:23:48;2.50;;;1.90;;
79243;SDS011;68672;42.676;23.356;2023-03-26T03:26:15;2.42;;;2.08;;
79243;SDS011;68672;42.676;23.356;2023-03-26T03:28:47;2.85;;;2.05;;
79243;SDS011;68672;42.676;23.356;2023-03-26T03:31:14;3.63;;;2.42;;
79243;SDS011;68672;42.676;23.356;2023-03-26T03:33:40;3.00;;;2.30;;
79243;SDS011;68672;42.676;23.356;2023-03-26T03:36:10;3.25;;;2.75;;
79243;SDS011;68672;42.676;23.356;2023-03-26T03:38:37;4.55;;;2.53;;
79243;SDS011;68672;42.676;23.356;2023-03-26T03:41:04;3.90;;;2.72;;
79243;SDS011;68672;42.676;23.356;2023-03-26T03:43:30;3.33;;;2.63;;
79243;SDS011;68672;42.676;23.356;2023-03-26T03:45:57;3.20;;;2.80;;
79243;SDS011;68672;42.676;23.356;2023-03-26T03:48:23;3.83;;;2.72;;
79243;SDS011;68672;42.676;23.356;2023-03-26T03:50:48;2.92;;;2.20;;
79243;SDS011;68672;42.676;23.356;2023-03-26T03:53:14;4.22;;;2.75;;
79243;SDS011;68672;42.676;23.356;2023-03-26T03:55:40;3.50;;;2.90;;
79243;SDS011;68672;42.676;23.356;2023-03-26T03:58:06;4.30;;;2.97;;
79243;SDS011;68672;42.676;23.356;2023-03-26T04:00:34;4.22;;;3.22;;
79243;SDS011;68672;42.676;23.356;2023-03-26T04:03:05;3.70;;;3.00;;
79243;SDS011;68672;42.676;23.356;2023-03-26T04:05:31;3.63;;;2.50;;
79243;SDS011;68672;42.676;23.356;2023-03-26T04:07:57;4.22;;;3.40;;
79243;SDS011;68672;42.676;23.356;2023-03-26T04:10:24;3.40;;;3.00;;
79243;SDS011;68672;42.676;23.356;2023-03-26T04:12:49;3.47;;;3.00;;
79243;SDS011;68672;42.676;23.356;2023-03-26T04:15:15;3.78;;;3.28;;
79243;SDS011;68672;42.676;23.356;2023-03-26T04:17:40;4.38;;;3.22;;
79243;SDS011;68672;42.676;23.356;2023-03-26T04:20:09;5.35;;;3.10;;
79243;SDS011;68672;42.676;23.356;2023-03-26T04:22:39;4.28;;;3.17;;
79243;SDS011;68672;42.676;23.356;2023-03-26T04:25:23;3.88;;;3.00;;
79243;SDS011;68672;42.676;23.356;2023-03-26T04:27:54;4.03;;;3.33;;
79243;SDS011;68672;42.676;23.356;2023-03-26T04:30:22;5.25;;;3.20;;
79243;SDS011;68672;42.676;23.356;2023-03-26T04:32:49;4.70;;;3.85;;
79243;SDS011;68672;42.676;23.356;2023-03-26T04:35:15;4.22;;;3.70;;
79243;SDS011;68672;42.676;23.356;2023-03-26T04:37:42;4.50;;;3.65;;
79243;SDS011;68672;42.676;23.356;2023-03-26T04:40:17;6.25;;;3.78;;
79243;SDS011;68672;42.676;23.356;2023-03-26T04:42:44;6.32;;;3.45;;
79243;SDS011;68672;42.676;23.356;2023-03-26T04:45:14;5.32;;;3.58;;
79243;SDS011;68672;42.676;23.356;2023-03-26T04:47:41;4.78;;;3.75;;
79243;SDS011;68672;42.676;23.356;2023-03-26T04:50:08;6.15;;;3.83;;
79243;SDS011;68672;42.676;23.356;2023-03-26T04:52:38;4.38;;;3.70;;
79243;SDS011;68672;42.676;23.356;2023-03-26T04:55:05;4.63;;;4.15;;
79243;SDS011;68672;42.676;23.356;2023-03-26T04:57:38;4.68;;;3.70;;
79243;SDS011;68672;42.676;23.356;2023-03-26T05:00:10;5.25;;;3.67;;
79243;SDS011;68672;42.676;23.356;2023-03-26T05:02:39;4.93;;;3.55;;
79243;SDS011;68672;42.676;23.356;2023-03-26T05:05:05;5.75;;;3.47;;
79243;SDS011;68672;42.676;23.356;2023-03-26T05:07:37;4.93;;;3.40;;
79243;SDS011;68672;42.676;23.356;2023-03-26T05:10:03;4.85;;;4.00;;
79243;SDS011;68672;42.676;23.356;2023-03-26T05:12:29;5.50;;;4.20;;
79243;SDS011;68672;42.676;23.356;2023-03-26T05:14:55;5.88;;;3.95;;
79243;SDS011;68672;42.676;23.356;2023-03-26T05:17:21;5.32;;;4.25;;
79243;SDS011;68672;42.676;23.356;2023-03-26T05:19:48;5.20;;;4.03;;
79243;SDS011;68672;42.676;23.356;2023-03-26T05:22:16;5.13;;;4.00;;
79243;SDS011;68672;42.676;23.356;2023-03-26T05:24:42;5.82;;;4.03;;
79243;SDS011;68672;42.676;23.356;2023-03-26T05:27:07;6.80;;;5.15;;
79243;SDS011;68672;42.676;23.356;2023-03-26T05:29:38;6.25;;;4.90;;
79243;SDS011;68672;42.676;23.356;2023-03-26T05:32:03;6.80;;;5.50;;
79243;SDS011;68672;42.676;23.356;2023-03-26T05:34:29;7.82;;;5.13;;
79243;SDS011;68672;42.676;23.356;2023-03-26T05:36:57;7.15;;;5.10;;
79243;SDS011;68672;42.676;23.356;2023-03-26T05:39:22;8.50;;;5.80;;
79243;SDS011;68672;42.676;23.356;2023-03-26T05:41:50;6.30;;;5.50;;
79243;SDS011;68672;42.676;23.356;2023-03-26T05:44:16;6.47;;;5.53;;
79243;SDS011;68672;42.676;23.356;2023-03-26T05:46:42;8.05;;;6.25;;
79243;SDS011;68672;42.676;23.356;2023-03-26T05:49:07;6.82;;;5.07;;
79243;SDS011;68672;42.676;23.356;2023-03-26T05:51:33;6.60;;;5.28;;
79243;SDS011;68672;42.676;23.356;2023-03-26T05:53:58;7.13;;;5.63;;
79243;SDS011;68672;42.676;23.356;2023-03-26T05:56:24;7.47;;;5.88;;
79243;SDS011;68672;42.676;23.356;2023-03-26T05:58:49;8.13;;;5.57;;
79243;SDS011;68672;42.676;23.356;2023-03-26T06:01:15;8.38;;;5.90;;
79243;SDS011;68672;42.676;23.356;2023-03-26T06:03:42;8.38;;;5.85;;
79243;SDS011;68672;42.676;23.356;2023-03-26T06:06:10;7.85;;;5.57;;
79243;SDS011;68672;42.676;23.356;2023-03-26T06:08:43;6.75;;;5.22;;
79243;SDS011;68672;42.676;23.356;2023-03-26T06:11:13;6.28;;;4.65;;
79243;SDS011;68672;42.676;23.356;2023-03-26T06:13:40;7.85;;;5.60;;
79243;SDS011;68672;42.676;23.356;2023-03-26T06:16:07;7.97;;;5.88;;
79243;SDS011;68672;42.676;23.356;2023-03-26T06:18:34;9.15;;;5.93;;
79243;SDS011;68672;42.676;23.356;2023-03-26T06:21:00;6.35;;;5.38;;
79243;SDS011;68672;42.676;23.356;2023-03-26T06:23:27;6.85;;;5.03;;
79243;SDS011;68672;42.676;23.356;2023-03-26T06:25:52;7.65;;;5.25;;
79243;SDS011;68672;42.676;23.356;2023-03-26T06:28:18;7.03;;;5.03;;
79243;SDS011;68672;42.676;23.356;2023-03-26T06:30:43;6.50;;;5.78;;
79243;SDS011;68672;42.676;23.356;2023-03-26T06:33:08;7.53;;;5.97;;
79243;SDS011;68672;42.676;23.356;2023-03-26T06:35:34;6.20;;;5.20;;
79243;SDS011;68672;42.676;23.356;2023-03-26T06:38:00;7.68;;;5.55;;
79243;SDS011;68672;42.676;23.356;2023-03-26T06:40:31;7.63;;;6.07;;
79243;SDS011;68672;42.676;23.356;2023-03-26T06:43:02;7.13;;;6.13;;
79243;SDS011;68672;42.676;23.356;2023-03-26T06:45:28;7.80;;;6.70;;
79243;SDS011;68672;42.676;23.356;2023-03-26T06:47:54;7.45;;;5.75;;
79243;SDS011;68672;42.676;23.356;2023-03-26T06:50:19;6.70;;;6.00;;
79243;SDS011;68672;42.676;23.356;2023-03-26T06:52:45;6.35;;;5.38;;
79243;SDS011;68672;42.676;23.356;2023-03-26T06:55:10;6.75;;;5.45;;
79243;SDS011;68672;42.676;23.356;2023-03-26T06:57:36;7.45;;;5.55;;
79243;SDS011;68672;42.676;23.356;2023-03-26T07:00:03;7.63;;;6.32;;
79243;SDS011;68672;42.676;23.356;2023-03-26T07:02:29;8.18;;;5.97;;
79243;SDS011;68672;42.676;23.356;2023-03-26T07:04:55;8.00;;;5.45;;
79243;SDS011;68672;42.676;23.356;2023-03-26T07:07:20;7.10;;;5.57;;
79243;SDS011;68672;42.676;23.356;2023-03-26T07:09:48;7.18;;;5.40;;
79243;SDS011;68672;42.676;23.356;2023-03-26T07:12:14;6.72;;;5.32;;
79243;SDS011;68672;42.676;23.356;2023-03-26T07:14:40;7.68;;;6.28;;
79243;SDS011;68672;42.676;23.356;2023-03-26T07:17:05;7.47;;;5.80;;
79243;SDS011;68672;42.676;23.356;2023-03-26T07:19:31;7.63;;;5.45;;
79243;SDS011;68672;42.676;23.356;2023-03-26T07:21:59;7.88;;;6.15;;
79243;SDS011;68672;42.676;23.356;2023-03-26T07:24:25;6.28;;;5.18;;
79243;SDS011;68672;42.676;23.356;2023-03-26T07:30:02;7.78;;;5.95;;
79243;SDS011;68672;42.676;23.356;2023-03-26T07:38:09;7.47;;;5.63;;
79243;SDS011;68672;42.676;23.356;2023-03-26T07:43:17;6.68;;;5.38;;
79243;SDS011;68672;42.676;23.356;2023-03-26T07:46:28;5.72;;;4.60;;
79243;SDS011;68672;42.676;23.356;2023-03-26T07:49:03;6.35;;;5.00;;
79243;SDS011;68672;42.676;23.356;2023-03-26T07:51:30;7.50;;;5.93;;
79243;SDS011;68672;42.676;23.356;2023-03-26T07:53:56;7.75;;;5.40;;
79243;SDS011;68672;42.676;23.356;2023-03-26T08:01:49;14.55;;;9.77;;
79243;SDS011;68672;42.676;23.356;2023-03-26T08:18:51;5.35;;;4.28;;
79243;SDS011;68672;42.676;23.356;2023-03-26T08:21:25;7.53;;;4.28;;
79243;SDS011;68672;42.676;23.356;2023-03-26T08:29:36;4.28;;;3.30;;
79243;SDS011;68672;42.676;23.356;2023-03-26T08:32:12;4.35;;;3.45;;
79243;SDS011;68672;42.676;23.356;2023-03-26T08:34:48;6.28;;;3.70;;
79243;SDS011;68672;42.676;23.356;2023-03-26T08:37:13;4.80;;;3.83;;
79243;SDS011;68672;42.676;23.356;2023-03-26T08:39:39;5.43;;;4.15;;
79243;SDS011;68672;42.676;23.356;2023-03-26T09:12:13;5.53;;;3.58;;
79243;SDS011;68672;42.676;23.356;2023-03-26T09:20:58;4.25;;;2.70;;
79243;SDS011;68672;42.676;23.356;2023-03-26T09:40:18;4.82;;;3.20;;
79243;SDS011;68672;42.676;23.356;2023-03-26T09:42:54;3.33;;;2.50;;
79243;SDS011;68672;42.676;23.356;2023-03-26T09:51:08;4.03;;;2.30;;
79243;SDS011;68672;42.676;23.356;2023-03-26T10:10:56;3.10;;;2.20;;
79243;SDS011;68672;42.676;23.356;2023-03-26T10:21:28;2.78;;;1.80;;
79243;SDS011;68672;42.676;23.356;2023-03-26T10:24:19;2.50;;;1.83;;
79243;SDS011;68672;42.676;23.356;2023-03-26T10:32:33;2.40;;;1.90;;
79243;SDS011;68672;42.676;23.356;2023-03-26T10:40:30;3.38;;;1.83;;
79243;SDS011;68672;42.676;23.356;2023-03-26T10:46:12;2.67;;;1.70;;
79243;SDS011;68672;42.676;23.356;2023-03-26T10:59:43;2.10;;;1.80;;
79243;SDS011;68672;42.676;23.356;2023-03-26T11:02:28;2.50;;;1.92;;
79243;SDS011;68672;42.676;23.356;2023-03-26T11:07:40;2.92;;;1.80;;
79243;SDS011;68672;42.676;23.356;2023-03-26T11:10:19;3.20;;;1.90;;
79243;SDS011;68672;42.676;23.356;2023-03-26T11:21:25;2.80;;;1.90;;
79243;SDS011;68672;42.676;23.356;2023-03-26T11:26:53;2.90;;;1.75;;
79243;SDS011;68672;42.676;23.356;2023-03-26T11:32:16;2.20;;;1.83;;
79243;SDS011;68672;42.676;23.356;2023-03-26T11:34:59;2.13;;;1.70;;
79243;SDS011;68672;42.676;23.356;2023-03-26T11:37:33;2.35;;;1.60;;
79243;SDS011;68672;42.676;23.356;2023-03-26T11:40:08;2.58;;;1.88;;
79243;SDS011;68672;42.676;23.356;2023-03-26T11:42:39;2.15;;;1.80;;
79243;SDS011;68672;42.676;23.356;2023-03-26T11:45:06;3.47;;;1.70;;
79243;SDS011;68672;42.676;23.356;2023-03-26T11:47:45;2.45;;;1.55;;
79243;SDS011;68672;42.676;23.356;2023-03-26T11:50:19;5.05;;;2.20;;
79243;SDS011;68672;42.676;23.356;2023-03-26T11:52:49;3.50;;;1.65;;
79243;SDS011;68672;42.676;23.356;2023-03-26T11:55:14;2.95;;;2.25;;
79243;SDS011;68672;42.676;23.356;2023-03-26T11:57:43;2.63;;;1.88;;
79243;SDS011;68672;42.676;23.356;2023-03-26T12:00:15;4.35;;;1.52;;
79243;SDS011;68672;42.676;23.356;2023-03-26T12:02:45;2.92;;;2.05;;
79243;SDS011;68672;42.676;23.356;2023-03-26T12:05:14;2.03;;;1.65;;
79243;SDS011;68672;42.676;23.356;2023-03-26T12:07:45;3.38;;;1.70;;
79243;SDS011;68672;42.676;23.356;2023-03-26T12:13:02;2.17;;;1.73;;
79243;SDS011;68672;42.676;23.356;2023-03-26T12:15:47;2.78;;;1.77;;
79243;SDS011;68672;42.676;23.356;2023-03-26T12:18:23;2.25;;;1.77;;
79243;SDS011;68672;42.676;23.356;2023-03-26T12:23:35;2.95;;;1.60;;
79243;SDS011;68672;42.676;23.356;2023-03-26T12:29:03;1.88;;;1.38;;
79243;SDS011;68672;42.676;23.356;2023-03-26T12:31:39;2.53;;;1.60;;
79243;SDS011;68672;42.676;23.356;2023-03-26T12:34:15;1.90;;;1.50;;
79243;SDS011;68672;42.676;23.356;2023-03-26T12:36:55;3.20;;;1.60;;
79243;SDS011;68672;42.676;23.356;2023-03-26T12:39:25;3.50;;;1.50;;
79243;SDS011;68672;42.676;23.356;2023-03-26T12:41:55;2.10;;;1.60;;
79243;SDS011;68672;42.676;23.356;2023-03-26T12:47:21;4.15;;;1.60;;
79243;SDS011;68672;42.676;23.356;2023-03-26T12:49:50;2.75;;;1.52;;
79243;SDS011;68672;42.676;23.356;2023-03-26T13:25:15;1.83;;;1.42;;
79243;SDS011;68672;42.676;23.356;2023-03-26T13:30:48;3.50;;;1.60;;
79243;SDS011;68672;42.676;23.356;2023-03-26T13:42:01;1.70;;;1.10;;
79243;SDS011;68672;42.676;23.356;2023-03-26T13:46:59;1.35;;;1.05;;
79243;SDS011;68672;42.676;23.356;2023-03-26T13:49:36;2.70;;;1.10;;
79243;SDS011;68672;42.676;23.356;2023-03-26T13:53:02;3.42;;;1.30;;
79243;SDS011;68672;42.676;23.356;2023-03-26T13:55:28;2.35;;;1.45;;
79243;SDS011;68672;42.676;23.356;2023-03-26T14:06:03;1.58;;;1.00;;
79243;SDS011;68672;42.676;23.356;2023-03-26T14:08:35;2.30;;;1.30;;
79243;SDS011;68672;42.676;23.356;2023-03-26T14:11:10;2.67;;;1.10;;
79243;SDS011;68672;42.676;23.356;2023-03-26T14:19:00;2.28;;;1.30;;
79243;SDS011;68672;42.676;23.356;2023-03-26T14:21:45;1.48;;;1.17;;
79243;SDS011;68672;42.676;23.356;2023-03-26T14:27:43;2.20;;;1.00;;
79243;SDS011;68672;42.676;23.356;2023-03-26T14:35:35;1.50;;;1.20;;
79243;SDS011;68672;42.676;23.356;2023-03-26T14:49:08;2.65;;;1.27;;
79243;SDS011;68672;42.676;23.356;2023-03-26T14:54:40;14.13;;;13.05;;
79243;SDS011;68672;42.676;23.356;2023-03-26T14:57:26;16.50;;;15.20;;
79243;SDS011;68672;42.676;23.356;2023-03-26T15:00:19;2.95;;;2.75;;
79243;SDS011;68672;42.676;23.356;2023-03-26T15:12:13;1.80;;;1.38;;
79243;SDS011;68672;42.676;23.356;2023-03-26T15:26:27;3.90;;;1.35;;
79243;SDS011;68672;42.676;23.356;2023-03-26T15:32:10;1.90;;;1.20;;
79243;SDS011;68672;42.676;23.356;2023-03-26T15:53:38;2.67;;;1.35;;
79243;SDS011;68672;42.676;23.356;2023-03-26T16:04:52;6.05;;;3.33;;
79243;SDS011;68672;42.676;23.356;2023-03-26T16:07:24;3.50;;;1.48;;
79243;SDS011;68672;42.676;23.356;2023-03-26T16:12:53;2.45;;;1.63;;
79243;SDS011;68672;42.676;23.356;2023-03-26T16:15:37;3.00;;;1.60;;
79243;SDS011;68672;42.676;23.356;2023-03-26T16:18:04;2.60;;;2.08;;
79243;SDS011;68672;42.676;23.356;2023-03-26T16:21:35;2.50;;;1.75;;
79243;SDS011;68672;42.676;23.356;2023-03-26T16:31:56;2.20;;;1.73;;
79243;SDS011;68672;42.676;23.356;2023-03-26T16:34:48;3.67;;;1.50;;
79243;SDS011;68672;42.676;23.356;2023-03-26T16:48:31;2.35;;;1.77;;
79243;SDS011;68672;42.676;23.356;2023-03-26T16:53:58;3.20;;;1.70;;
79243;SDS011;68672;42.676;23.356;2023-03-26T16:56:42;9.02;;;1.88;;
79243;SDS011;68672;42.676;23.356;2023-03-26T17:04:46;2.92;;;1.95;;
79243;SDS011;68672;42.676;23.356;2023-03-26T17:10:05;3.58;;;1.73;;
79243;SDS011;68672;42.676;23.356;2023-03-26T17:18:02;4.38;;;2.45;;
79243;SDS011;68672;42.676;23.356;2023-03-26T17:20:36;3.97;;;2.30;;
79243;SDS011;68672;42.676;23.356;2023-03-26T17:36:57;9.48;;;4.75;;
79243;SDS011;68672;42.676;23.356;2023-03-26T17:47:28;8.23;;;4.78;;
79243;SDS011;68672;42.676;23.356;2023-03-26T17:50:25;8.18;;;4.65;;
79243;SDS011;68672;42.676;23.356;2023-03-26T17:53:02;10.32;;;5.57;;
79243;SDS011;68672;42.676;23.356;2023-03-26T17:55:32;10.77;;;5.18;;
79243;SDS011;68672;42.676;23.356;2023-03-26T17:58:05;10.25;;;6.38;;
79243;SDS011;68672;42.676;23.356;2023-03-26T18:00:41;15.38;;;8.40;;
79243;SDS011;68672;42.676;23.356;2023-03-26T18:14:51;11.48;;;5.45;;
79243;SDS011;68672;42.676;23.356;2023-03-26T18:20:04;9.88;;;6.18;;
79243;SDS011;68672;42.676;23.356;2023-03-26T18:22:31;10.32;;;5.93;;
79243;SDS011;68672;42.676;23.356;2023-03-26T18:25:00;9.93;;;5.45;;
79243;SDS011;68672;42.676;23.356;2023-03-26T18:27:34;7.53;;;4.88;;
79243;SDS011;68672;42.676;23.356;2023-03-26T18:30:12;7.93;;;5.45;;
79243;SDS011;68672;42.676;23.356;2023-03-26T18:32:50;7.93;;;5.15;;
79243;SDS011;68672;42.676;23.356;2023-03-26T18:35:22;7.50;;;4.90;;
79243;SDS011;68672;42.676;23.356;2023-03-26T18:37:48;6.18;;;3.92;;
79243;SDS011;68672;42.676;23.356;2023-03-26T18:40:20;15.35;;;6.32;;
79243;SDS011;68672;42.676;23.356;2023-03-26T18:42:52;8.90;;;4.03;;
79243;SDS011;68672;42.676;23.356;2023-03-26T18:45:27;5.07;;;3.72;;
79243;SDS011;68672;42.676;23.356;2023-03-26T18:48:05;5.03;;;3.53;;
79243;SDS011;68672;42.676;23.356;2023-03-26T18:50:36;4.68;;;3.63;;
79243;SDS011;68672;42.676;23.356;2023-03-26T18:53:05;6.25;;;4.68;;
79243;SDS011;68672;42.676;23.356;2023-03-26T18:55:33;6.10;;;3.80;;
79243;SDS011;68672;42.676;23.356;2023-03-26T19:01:07;8.13;;;4.95;;
79243;SDS011;68672;42.676;23.356;2023-03-26T19:03:34;7.03;;;3.75;;
79243;SDS011;68672;42.676;23.356;2023-03-26T19:06:07;5.03;;;3.78;;
79243;SDS011;68672;42.676;23.356;2023-03-26T19:08:38;5.97;;;3.35;;
79243;SDS011;68672;42.676;23.356;2023-03-26T19:11:06;7.30;;;3.88;;
79243;SDS011;68672;42.676;23.356;2023-03-26T19:13:34;7.22;;;4.53;;
79243;SDS011;68672;42.676;23.356;2023-03-26T19:16:06;9.48;;;4.28;;
79243;SDS011;68672;42.676;23.356;2023-03-26T19:18:41;6.47;;;3.58;;
79243;SDS011;68672;42.676;23.356;2023-03-26T19:21:07;5.05;;;4.10;;
79243;SDS011;68672;42.676;23.356;2023-03-26T19:23:34;8.27;;;4.25;;
79243;SDS011;68672;42.676;23.356;2023-03-26T19:26:03;5.43;;;3.88;;
79243;SDS011;68672;42.676;23.356;2023-03-26T19:31:08;5.50;;;3.42;;
79243;SDS011;68672;42.676;23.356;2023-03-26T19:33:38;5.55;;;3.67;;
79243;SDS011;68672;42.676;23.356;2023-03-26T19:39:22;6.85;;;3.50;;
79243;SDS011;68672;42.676;23.356;2023-03-26T19:44:04;6.38;;;3.60;;
79243;SDS011;68672;42.676;23.356;2023-03-26T19:46:42;6.40;;;3.50;;
79243;SDS011;68672;42.676;23.356;2023-03-26T19:49:21;4.18;;;2.92;;
79243;SDS011;68672;42.676;23.356;2023-03-26T19:51:50;3.90;;;2.83;;
79243;SDS011;68672;42.676;23.356;2023-03-26T19:54:17;4.95;;;3.20;;
79243;SDS011;68672;42.676;23.356;2023-03-26T19:56:43;5.75;;;3.50;;
79243;SDS011;68672;42.676;23.356;2023-03-26T19:59:09;20.33;;;11.88;;
79243;SDS011;68672;42.676;23.356;2023-03-26T20:01:38;8.00;;;4.82;;
79243;SDS011;68672;42.676;23.356;2023-03-26T20:04:04;6.18;;;3.25;;
79243;SDS011;68672;42.676;23.356;2023-03-26T20:06:30;7.47;;;4.10;;
79243;SDS011;68672;42.676;23.356;2023-03-26T20:08:57;5.55;;;3.60;;
79243;SDS011;68672;42.676;23.356;2023-03-26T20:11:28;4.22;;;3.30;;
79243;SDS011;68672;42.676;23.356;2023-03-26T20:14:03;6.10;;;3.10;;
79243;SDS011;68672;42.676;23.356;2023-03-26T20:16:41;5.85;;;3.65;;
79243;SDS011;68672;42.676;23.356;2023-03-26T20:19:09;4.78;;;3.30;;
79243;SDS011;68672;42.676;23.356;2023-03-26T20:21:35;5.47;;;3.50;;
79243;SDS011;68672;42.676;23.356;2023-03-26T20:24:11;6.50;;;3.10;;
79243;SDS011;68672;42.676;23.356;2023-03-26T20:26:39;8.45;;;3.78;;
79243;SDS011;68672;42.676;23.356;2023-03-26T20:29:05;5.50;;;3.40;;
79243;SDS011;68672;42.676;23.356;2023-03-26T20:31:30;7.45;;;3.63;;
79243;SDS011;68672;42.676;23.356;2023-03-26T20:33:56;5.85;;;3.20;;
79243;SDS011;68672;42.676;23.356;2023-03-26T20:36:21;6.13;;;3.33;;
79243;SDS011;68672;42.676;23.356;2023-03-26T20:38:47;5.20;;;3.13;;
79243;SDS011;68672;42.676;23.356;2023-03-26T20:41:17;4.55;;;3.30;;
79243;SDS011;68672;42.676;23.356;2023-03-26T20:43:48;3.67;;;2.65;;
79243;SDS011;68672;42.676;23.356;2023-03-26T20:46:15;3.55;;;2.45;;
79243;SDS011;68672;42.676;23.356;2023-03-26T20:48:48;4.97;;;2.53;;
79243;SDS011;68672;42.676;23.356;2023-03-26T20:51:15;3.97;;;3.30;;
79243;SDS011;68672;42.676;23.356;2023-03-26T20:53:41;5.10;;;2.55;;
79243;SDS011;68672;42.676;23.356;2023-03-26T20:56:14;3.63;;;2.80;;
79243;SDS011;68672;42.676;23.356;2023-03-26T20:58:42;5.35;;;3.15;;
79243;SDS011;68672;42.676;23.356;2023-03-26T21:01:13;6.72;;;3.10;;
79243;SDS011;68672;42.676;23.356;2023-03-26T21:03:41;7.13;;;2.72;;
79243;SDS011;68672;42.676;23.356;2023-03-26T21:06:14;6.53;;;3.10;;
79243;SDS011;68672;42.676;23.356;2023-03-26T21:08:41;5.05;;;2.90;;
79243;SDS011;68672;42.676;23.356;2023-03-26T21:16:51;5.43;;;3.35;;
79243;SDS011;68672;42.676;23.356;2023-03-26T21:19:17;6.55;;;3.03;;
79243;SDS011;68672;42.676;23.356;2023-03-26T21:27:32;3.55;;;2.70;;
79243;SDS011;68672;42.676;23.356;2023-03-26T21:30:10;6.10;;;3.13;;
79243;SDS011;68672;42.676;23.356;2023-03-26T21:32:38;3.92;;;2.90;;
79243;SDS011;68672;42.676;23.356;2023-03-26T21:35:08;6.05;;;3.60;;
79243;SDS011;68672;42.676;23.356;2023-03-26T21:37:40;10.38;;;5.63;;
79243;SDS011;68672;42.676;23.356;2023-03-26T21:40:09;6.10;;;3.28;;
79243;SDS011;68672;42.676;23.356;2023-03-26T21:42:41;5.43;;;3.53;;
79243;SDS011;68672;42.676;23.356;2023-03-26T21:45:09;8.32;;;3.55;;
79243;SDS011;68672;42.676;23.356;2023-03-26T21:47:36;5.75;;;2.83;;
79243;SDS011;68672;42.676;23.356;2023-03-26T21:50:02;5.68;;;3.28;;
79243;SDS011;68672;42.676;23.356;2023-03-26T21:52:28;10.70;;;5.10;;
79243;SDS011;68672;42.676;23.356;2023-03-26T21:54:55;6.20;;;3.97;;
79243;SDS011;68672;42.676;23.356;2023-03-26T21:57:36;9.95;;;4.07;;